Time;durP1;ratioP1;P1;durP2;ratioP2;P2;SDS_P1;SDS_P2;PMS_P1;PMS_P2;Temp;Humidity;BMP_temperature;BMP_pressure;BME280_temperature;BME280_humidity;BME280_pressure;Samples;Min_cycle;Max_cycle;Signal;HPM_P1;HPM_P2
2022/09/30 00:00:45;;;;;;;34.85;16.88;;;;;;;10.00;100.00;98622.34;5173302;27;20042;-70
2022/09/30 00:03:11;;;;;;;35.67;17.05;;;;;;;10.02;100.00;98608.28;5173550;27;20046;-70
2022/09/30 00:05:37;;;;;;;35.40;15.50;;;;;;;9.97;100.00;98609.41;5173469;27;20050;-70
2022/09/30 00:08:04;;;;;;;29.45;15.05;;;;;;;9.92;100.00;98617.16;5173295;27;20046;-70
2022/09/30 00:10:30;;;;;;;20.98;13.90;;;;;;;9.93;100.00;98613.25;5173555;27;20394;-70
2022/09/30 00:12:57;;;;;;;27.85;13.82;;;;;;;9.82;100.00;98622.13;5173131;27;20046;-70
2022/09/30 00:15:24;;;;;;;19.35;13.05;;;;;;;9.86;100.00;98616.69;5173281;27;20046;-70
2022/09/30 00:17:50;;;;;;;18.48;13.40;;;;;;;9.68;100.00;98623.91;5172993;27;20050;-70
2022/09/30 00:20:18;;;;;;;25.95;14.55;;;;;;;9.78;100.00;98624.03;5173248;27;20057;-70
2022/09/30 00:22:44;;;;;;;27.90;14.70;;;;;;;9.75;100.00;98624.78;5172186;27;20046;-70
2022/09/30 00:25:10;;;;;;;30.40;15.48;;;;;;;9.71;100.00;98629.44;5173118;27;20046;-70
2022/09/30 00:27:37;;;;;;;21.45;13.95;;;;;;;9.68;100.00;98632.91;5173005;27;20509;-70
2022/09/30 00:30:03;;;;;;;22.85;13.20;;;;;;;9.62;100.00;98632.44;5173489;27;20050;-70
2022/09/30 00:32:30;;;;;;;26.30;15.55;;;;;;;9.62;100.00;98645.34;5173070;27;20046;-70
2022/09/30 00:34:56;;;;;;;48.33;17.92;;;;;;;9.62;100.00;98648.06;5173218;27;20103;-70
2022/09/30 00:37:23;;;;;;;22.48;14.52;;;;;;;9.60;100.00;98653.16;5173300;27;20050;-70
2022/09/30 00:39:49;;;;;;;27.60;15.52;;;;;;;9.58;100.00;98658.97;5173058;27;20095;-70
2022/09/30 00:42:18;;;;;;;25.17;15.32;;;;;;;9.58;100.00;98660.94;5173037;27;20053;-70
2022/09/30 00:44:50;;;;;;;25.75;15.68;;;;;;;9.56;100.00;98660.50;5173077;27;20042;-70
2022/09/30 00:47:51;;;;;;;37.85;16.77;;;;;;;9.53;100.00;98675.72;5172731;27;20142;-70
2022/09/30 00:50:28;;;;;;;50.28;18.15;;;;;;;9.46;100.00;98667.41;5172578;27;20099;-70
2022/09/30 00:53:00;;;;;;;41.35;18.17;;;;;;;9.57;100.00;98670.31;5172525;27;20053;-70
2022/09/30 00:55:34;;;;;;;31.90;15.95;;;;;;;9.53;100.00;98673.00;5172795;27;20042;-70
2022/09/30 00:58:02;;;;;;;29.83;15.65;;;;;;;9.57;100.00;98682.03;5172571;27;20046;-70
2022/09/30 01:00:28;;;;;;;29.80;15.45;;;;;;;9.58;100.00;98686.34;5173001;27;20046;-70
2022/09/30 01:02:55;;;;;;;38.97;18.33;;;;;;;9.59;100.00;98685.19;5172473;27;20505;-70
2022/09/30 01:05:24;;;;;;;26.65;15.55;;;;;;;9.59;100.00;98692.59;5172688;27;20050;-70
2022/09/30 01:07:51;;;;;;;28.95;14.50;;;;;;;9.60;100.00;98699.69;5172614;27;20470;-70
2022/09/30 01:10:17;;;;;;;30.35;16.08;;;;;;;9.60;100.00;98694.97;5172737;27;20344;-70
2022/09/30 01:12:43;;;;;;;26.67;14.50;;;;;;;9.58;100.00;98693.78;5172775;27;20483;-70
2022/09/30 01:15:10;;;;;;;26.77;15.20;;;;;;;9.48;100.00;98684.25;5172548;27;20098;-69
2022/09/30 01:17:51;;;;;;;28.80;16.55;;;;;;;9.43;100.00;98676.38;5172200;27;20046;-70
2022/09/30 01:20:54;;;;;;;22.67;14.25;;;;;;;9.27;100.00;98676.53;5172379;27;20473;-70
2022/09/30 01:23:51;;;;;;;25.70;15.32;;;;;;;9.35;100.00;98672.72;5172194;27;20042;-70
2022/09/30 01:26:38;;;;;;;28.65;14.65;;;;;;;9.26;100.00;98674.13;5171940;27;20525;-70
2022/09/30 01:29:28;;;;;;;25.00;15.68;;;;;;;9.30;100.00;98681.25;5172256;27;20513;-70
2022/09/30 01:32:05;;;;;;;28.17;15.93;;;;;;;9.26;100.00;98688.59;5172115;27;20058;-70
2022/09/30 01:34:42;;;;;;;24.45;14.43;;;;;;;9.18;100.00;98706.84;5175669;27;20080;-70
2022/09/30 01:37:16;;;;;;;25.80;15.65;;;;;;;9.08;100.00;98701.22;5176030;27;20046;-70
2022/09/30 01:39:52;;;;;;;24.60;14.88;;;;;;;9.05;100.00;98710.94;5175710;27;20053;-70
2022/09/30 01:42:25;;;;;;;23.85;14.15;;;;;;;8.94;100.00;98705.28;5175624;27;20053;-70
2022/09/30 01:45:02;;;;;;;21.80;14.40;;;;;;;8.82;100.00;98710.94;5175689;27;20050;-70
2022/09/30 01:47:34;;;;;;;25.65;14.77;;;;;;;8.67;100.00;98715.38;5175712;27;20058;-70
2022/09/30 01:50:06;;;;;;;29.65;15.23;;;;;;;8.62;100.00;98704.72;5175613;27;20095;-70
2022/09/30 01:52:40;;;;;;;29.58;15.30;;;;;;;8.53;100.00;98711.56;5175447;27;20406;-70
2022/09/30 01:55:16;;;;;;;25.58;14.68;;;;;;;8.46;100.00;98723.16;5176038;27;20053;-70
2022/09/30 01:57:51;;;;;;;26.67;15.07;;;;;;;8.35;100.00;98725.66;5175289;27;20049;-70
2022/09/30 02:00:18;;;;;;;30.38;15.85;;;;;;;8.26;100.00;98725.06;5175374;27;20132;-70
2022/09/30 02:02:50;;;;;;;21.85;14.43;;;;;;;8.12;100.00;98733.78;5175559;27;20077;-70
2022/09/30 02:05:20;;;;;;;34.38;17.42;;;;;;;8.10;100.00;98730.63;5175269;27;20097;-70
2022/09/30 02:07:53;;;;;;;26.10;15.52;;;;;;;8.06;100.00;98728.97;5175447;27;20083;-70
2022/09/30 02:10:25;;;;;;;28.65;14.88;;;;;;;7.96;100.00;98730.31;5175242;27;20088;-70
2022/09/30 02:12:57;;;;;;;25.80;14.95;;;;;;;7.91;100.00;98731.41;5175273;27;20082;-70
2022/09/30 02:15:30;;;;;;;24.55;13.57;;;;;;;7.83;100.00;98737.88;5175441;27;20052;-70
2022/09/30 02:18:02;;;;;;;21.27;13.75;;;;;;;7.76;100.00;98734.94;5175083;27;20046;-70
2022/09/30 02:20:32;;;;;;;26.55;14.57;;;;;;;7.67;100.00;98734.38;5175039;27;20088;-70
2022/09/30 02:23:04;;;;;;;29.73;16.92;;;;;;;7.44;100.00;98735.03;5174932;27;20064;-70
2022/09/30 02:25:34;;;;;;;25.92;16.48;;;;;;;7.46;100.00;98697.31;5175557;27;20046;-70
2022/09/30 02:28:06;;;;;;;37.30;17.75;;;;;;;7.53;100.00;98686.53;5175005;27;20430;-70
2022/09/30 02:30:35;;;;;;;30.08;16.63;;;;;;;7.52;100.00;98695.84;5175268;27;20053;-70
2022/09/30 02:33:05;;;;;;;28.27;15.93;;;;;;;7.49;100.00;98712.94;5174848;27;20050;-70
2022/09/30 02:35:35;;;;;;;31.58;16.52;;;;;;;7.45;100.00;98711.28;5174993;27;20090;-70
2022/09/30 02:38:07;;;;;;;40.42;17.95;;;;;;;7.41;100.00;98724.84;5174756;27;20140;-70
2022/09/30 02:40:38;;;;;;;26.98;15.32;;;;;;;7.35;100.00;98728.97;5174844;27;20520;-70
2022/09/30 02:43:05;;;;;;;26.73;14.85;;;;;;;7.26;100.00;98731.09;5174769;27;20513;-70
2022/09/30 02:45:41;;;;;;;26.10;14.13;;;;;;;7.24;100.00;98728.72;5174034;27;20050;-70
2022/09/30 02:48:18;;;;;;;26.10;14.95;;;;;;;7.17;100.00;98744.13;5174836;27;20154;-70
2022/09/30 02:50:50;;;;;;;29.60;15.77;;;;;;;7.12;100.00;98736.19;5174798;27;20114;-70
2022/09/30 02:53:23;;;;;;;28.70;16.33;;;;;;;7.06;100.00;98746.56;5174877;27;20046;-70
2022/09/30 02:56:06;;;;;;;30.88;18.45;;;;;;;7.05;100.00;98742.25;5174400;27;20057;-70
2022/09/30 02:58:35;;;;;;;37.50;17.98;;;;;;;6.98;100.00;98748.31;5174497;27;20497;-70
2022/09/30 03:01:02;;;;;;;33.60;18.08;;;;;;;6.96;100.00;98747.09;5174473;27;20050;-70
2022/09/30 03:03:33;;;;;;;36.70;17.88;;;;;;;6.93;100.00;98740.44;5174339;27;20145;-70
2022/09/30 03:05:59;;;;;;;32.45;17.85;;;;;;;6.89;100.00;98730.56;5174465;27;20504;-70
2022/09/30 03:08:25;;;;;;;46.95;17.48;;;;;;;6.75;100.00;98725.53;5174249;27;20050;-70
2022/09/30 03:10:52;;;;;;;34.15;17.40;;;;;;;6.74;100.00;98726.69;5174370;27;20043;-70
2022/09/30 03:13:40;;;;;;;38.58;17.30;;;;;;;6.71;100.00;98722.72;5174046;27;20500;-70
2022/09/30 03:16:18;;;;;;;33.22;18.70;;;;;;;6.66;100.00;98722.19;5128714;27;20050;-70
2022/09/30 03:19:01;;;;;;;34.25;16.20;;;;;;;6.63;100.00;98723.69;5174152;27;20081;-70
2022/09/30 03:21:42;;;;;;;30.05;16.77;;;;;;;6.58;100.00;98721.22;5174345;27;20203;-70
2022/09/30 03:24:36;;;;;;;38.08;16.67;;;;;;;6.57;100.00;98730.53;5174234;27;20081;-70
2022/09/30 03:27:13;;;;;;;32.53;15.80;;;;;;;6.52;100.00;98728.84;5173998;27;20046;-70
2022/09/30 03:29:46;;;;;;;32.33;16.23;;;;;;;6.50;100.00;98717.53;5174291;27;20474;-70
2022/09/30 03:32:24;;;;;;;33.50;17.17;;;;;;;6.48;100.00;98721.72;5174009;27;20052;-70
2022/09/30 03:35:08;;;;;;;28.70;15.23;;;;;;;6.46;100.00;98734.88;5174104;27;20481;-70
2022/09/30 03:37:44;;;;;;;;;;;;;;;6.41;100.00;98749.56;5174347;27;20141;-70
2022/09/30 03:40:19;;;;;;;34.30;17.20;;;;;;;6.35;100.00;98753.66;5173877;27;20389;-70
2022/09/30 03:42:52;;;;;;;38.17;17.25;;;;;;;6.34;100.00;98750.16;5173868;27;20078;-70
2022/09/30 03:45:25;;;;;;;32.15;16.77;;;;;;;6.32;100.00;98743.47;5173806;27;20425;-70
2022/09/30 03:47:57;;;;;;;31.85;17.08;;;;;;;6.20;100.00;98743.50;5173533;27;20046;-70
2022/09/30 03:50:27;;;;;;;33.53;17.05;;;;;;;6.23;100.00;98742.81;5173626;27;20054;-70
2022/09/30 03:52:54;;;;;;;37.67;18.58;;;;;;;6.23;100.00;98743.63;5173580;27;20497;-70
2022/09/30 03:55:22;;;;;;;32.45;17.35;;;;;;;6.21;100.00;98743.16;5173064;27;20050;-70
2022/09/30 03:57:50;;;;;;;33.03;16.42;;;;;;;6.21;100.00;98743.16;5172511;27;20085;-70
2022/09/30 04:00:17;;;;;;;29.50;16.58;;;;;;;6.14;100.00;98737.53;5173575;27;20050;-70
2022/09/30 04:02:44;;;;;;;32.13;17.10;;;;;;;6.13;100.00;98736.72;5173508;27;20120;-70
2022/09/30 04:05:11;;;;;;;34.25;16.83;;;;;;;6.02;100.00;98741.06;5173682;27;20046;-70
2022/09/30 04:07:38;;;;;;;36.08;17.15;;;;;;;6.13;100.00;98738.63;5173258;27;20100;-70
2022/09/30 04:10:05;;;;;;;26.55;15.48;;;;;;;6.12;100.00;98742.50;5173287;27;20046;-70
2022/09/30 04:12:31;;;;;;;30.13;16.48;;;;;;;6.11;100.00;98755.31;5173236;27;20505;-69
2022/09/30 04:14:57;;;;;;;26.40;15.70;;;;;;;6.05;100.00;98759.44;5173528;27;20481;-70
2022/09/30 04:17:23;;;;;;;29.40;14.98;;;;;;;6.11;100.00;98754.53;5173327;27;20050;-70
2022/09/30 04:19:50;;;;;;;27.80;15.00;;;;;;;6.10;100.00;98758.41;5173085;27;20102;-70
2022/09/30 04:22:16;;;;;;;26.10;14.48;;;;;;;6.11;100.00;98776.31;5173280;27;20056;-70
2022/09/30 04:24:43;;;;;;;28.60;14.02;;;;;;;6.10;100.00;98797.28;5173037;27;20053;-70
2022/09/30 04:27:09;;;;;;;22.23;13.45;;;;;;;6.08;100.00;98796.03;5173221;27;20053;-70
2022/09/30 04:29:35;;;;;;;33.90;16.60;;;;;;;6.06;100.00;98809.97;5172878;27;20133;-70
2022/09/30 04:32:02;;;;;;;26.85;15.65;;;;;;;6.10;100.00;98819.06;5173039;27;20089;-70
2022/09/30 04:34:28;;;;;;;29.42;15.18;;;;;;;6.14;100.00;98824.63;5172973;27;20050;-70
2022/09/30 04:36:54;;;;;;;24.35;13.07;;;;;;;6.12;100.00;98833.09;5172935;27;20081;-70
2022/09/30 04:39:20;;;;;;;33.63;15.18;;;;;;;6.13;100.00;98842.88;5172590;27;20560;-70
2022/09/30 04:41:47;;;;;;;30.00;15.35;;;;;;;6.13;100.00;98848.31;5172776;27;20065;-70
2022/09/30 04:44:13;;;;;;;27.17;14.40;;;;;;;6.15;100.00;98849.91;5172795;27;20061;-70
2022/09/30 04:46:40;;;;;;;28.52;14.60;;;;;;;6.09;100.00;98858.28;5172943;27;20042;-70
2022/09/30 04:49:07;;;;;;;33.97;16.48;;;;;;;6.28;100.00;98848.75;5172653;27;20152;-70
2022/09/30 04:51:34;;;;;;;37.50;18.35;;;;;;;6.44;100.00;98852.34;5172563;27;20524;-70
2022/09/30 04:54:01;;;;;;;28.02;16.05;;;;;;;6.53;100.00;98846.72;5173000;27;20053;-70
2022/09/30 04:56:27;;;;;;;29.80;15.02;;;;;;;6.72;100.00;98848.81;5172496;27;20046;-70
2022/09/30 04:58:54;;;;;;;26.63;14.25;;;;;;;6.88;100.00;98857.06;5172648;27;20451;-70
2022/09/30 05:01:20;;;;;;;23.40;14.40;;;;;;;6.97;100.00;98868.59;5172381;27;20082;-70
2022/09/30 05:03:47;;;;;;;23.45;14.95;;;;;;;7.21;100.00;98875.84;5172444;27;20050;-70
2022/09/30 05:06:14;;;;;;;26.60;17.13;;;;;;;7.34;100.00;98901.91;5172392;27;20050;-70
2022/09/30 05:08:42;;;;;;;34.42;16.70;;;;;;;7.71;100.00;98905.19;5171875;27;20050;-72
2022/09/30 05:11:13;;;;;;;32.30;15.95;;;;;;;8.18;100.00;98928.16;5172724;27;20527;-71
2022/09/30 05:13:40;;;;;;;31.15;12.98;;;;;;;8.69;100.00;98961.75;5172756;27;20052;-71
2022/09/30 05:16:09;;;;;;;16.38;11.07;;;;;;;9.18;100.00;99020.59;5172583;27;20053;-71
2022/09/30 05:18:37;;;;;;;25.02;11.07;;;;;;;9.60;100.00;99096.50;5171883;27;20054;-70
2022/09/30 05:21:03;;;;;;;15.05;10.20;;;;;;;9.90;100.00;99146.00;5172209;27;20049;-73
2022/09/30 05:23:31;;;;;;;16.20;10.35;;;;;;;10.37;100.00;99158.69;5172002;27;20103;-73
2022/09/30 05:25:58;;;;;;;13.68;9.55;;;;;;;10.81;100.00;99136.31;5172427;27;20054;-73
2022/09/30 05:28:25;;;;;;;11.63;9.40;;;;;;;11.16;100.00;99022.78;5172063;27;20054;-73
2022/09/30 05:30:57;;;;;;;12.82;9.30;;;;;;;11.62;100.00;98882.56;5172229;27;20058;-73
2022/09/30 05:33:24;;;;;;;12.50;10.00;;;;;;;12.07;100.00;98730.28;5172110;27;20429;-73
2022/09/30 05:35:50;;;;;;;11.32;8.88;;;;;;;12.39;100.00;98476.72;5171923;27;20073;-73
2022/09/30 05:38:16;;;;;;;10.93;8.35;;;;;;;12.62;100.00;98199.38;5171811;27;20082;-73
2022/09/30 05:40:42;;;;;;;11.77;8.13;;;;;;;12.89;100.00;98099.78;5172119;27;20047;-73
2022/09/30 05:43:09;;;;;;;11.82;7.65;;;;;;;13.32;100.00;98017.59;5171926;27;20088;-73
2022/09/30 05:45:37;;;;;;;9.80;7.72;;;;;;;13.46;100.00;97934.06;5172054;27;20133;-72
2022/09/30 05:48:04;;;;;;;13.32;7.88;;;;;;;13.40;100.00;97933.00;5172228;27;20050;-71
2022/09/30 05:50:31;;;;;;;11.23;8.15;;;;;;;13.53;100.00;97958.78;5171591;27;20046;-71
2022/09/30 05:52:57;;;;;;;10.27;7.97;;;;;;;13.61;100.00;97992.50;5171859;27;20053;-71
2022/09/30 05:55:23;;;;;;;12.80;8.70;;;;;;;13.67;100.00;98007.38;5171593;27;20098;-71
2022/09/30 05:57:50;;;;;;;20.25;9.48;;;;;;;13.84;100.00;98006.34;5171660;27;20086;-71
2022/09/30 06:00:17;;;;;;;11.27;8.27;;;;;;;14.33;100.00;97937.09;5171594;27;20069;-67
2022/09/30 06:02:44;;;;;;;15.63;7.95;;;;;;;14.33;100.00;97879.22;5171504;27;20078;-67
2022/09/30 06:05:11;;;;;;;13.48;8.07;;;;;;;14.68;100.00;97832.88;5171513;27;20096;-67
2022/09/30 06:07:39;;;;;;;14.65;8.65;;;;;;;14.59;100.00;97811.38;5171809;27;20095;-67
2022/09/30 06:10:11;;;;;;;14.32;12.82;;;;;;;14.67;100.00;97812.03;5171494;27;20096;-65
2022/09/30 06:12:37;;;;;;;14.57;9.32;;;;;;;14.71;100.00;97843.84;5171269;27;20050;-65
2022/09/30 06:15:04;;;;;;;11.40;8.90;;;;;;;14.99;100.00;97845.22;5171397;27;20445;-66
2022/09/30 06:17:30;;;;;;;16.35;14.65;;;;;;;15.44;100.00;97803.22;5171039;27;20046;-65
2022/09/30 06:19:57;;;;;;;13.73;9.10;;;;;;;15.77;100.00;97767.34;5172603;27;20084;-66
2022/09/30 06:22:23;;;;;;;14.90;13.40;;;;;;;16.10;100.00;97775.59;5174812;27;20133;-66
2022/09/30 06:24:50;;;;;;;22.05;9.68;;;;;;;16.09;100.00;97771.25;5174783;27;20081;-66
2022/09/30 06:27:16;;;;;;;19.17;9.82;;;;;;;16.26;100.00;97761.72;5174711;27;20121;-65
2022/09/30 06:29:42;;;;;;;36.63;14.60;;;;;;;16.63;100.00;97765.03;5174633;27;20428;-65
2022/09/30 06:32:08;;;;;;;17.13;10.43;;;;;;;16.79;100.00;97759.44;5174473;27;20506;-65
2022/09/30 06:34:35;;;;;;;13.25;9.15;;;;;;;17.05;100.00;97771.31;5174832;27;20042;-65
2022/09/30 06:37:01;;;;;;;15.15;9.60;;;;;;;17.00;100.00;97782.19;5174468;27;20081;-65
2022/09/30 06:39:27;;;;;;;12.38;8.85;;;;;;;17.10;100.00;97792.16;5174392;27;20099;-66
2022/09/30 06:41:55;;;;;;;11.43;9.43;;;;;;;17.05;100.00;97792.69;5174546;27;20054;-66
2022/09/30 06:44:21;;;;;;;18.85;12.18;;;;;;;17.12;100.00;97786.94;5174383;27;20054;-66
2022/09/30 06:46:47;;;;;;;21.23;12.18;;;;;;;17.04;100.00;97794.69;5174550;27;20089;-66
2022/09/30 06:49:13;;;;;;;31.85;19.15;;;;;;;17.07;100.00;97787.50;5174334;27;20182;-65
2022/09/30 06:51:40;;;;;;;15.45;11.10;;;;;;;17.15;100.00;97799.88;5174206;27;20052;-66
2022/09/30 06:54:07;;;;;;;11.88;10.52;;;;;;;17.15;100.00;97791.59;5174310;27;20531;-66
2022/09/30 06:56:34;;;;;;;13.55;10.02;;;;;;;17.24;100.00;97827.72;5174182;27;20056;-65
2022/09/30 06:59:01;;;;;;;16.80;9.60;;;;;;;16.97;100.00;97813.50;5174081;27;20091;-66
2022/09/30 07:01:28;;;;;;;25.17;11.25;;;;;;;17.77;100.00;97789.25;5174032;27;20073;-66
2022/09/30 07:03:56;;;;;;;15.45;9.85;;;;;;;17.62;100.00;97872.03;5174029;27;20102;-66
2022/09/30 07:06:24;;;;;;;12.50;9.25;;;;;;;18.11;100.00;97913.28;5173990;27;20054;-66
2022/09/30 07:08:52;;;;;;;10.30;9.20;;;;;;;18.34;100.00;97930.78;5174105;27;20050;-66
2022/09/30 07:11:18;;;;;;;16.48;9.45;;;;;;;18.55;100.00;97895.97;5174080;27;20043;-67
2022/09/30 07:13:45;;;;;;;15.15;10.40;;;;;;;18.57;100.00;97949.06;5173896;27;20085;-66
2022/09/30 07:16:12;;;;;;;15.25;11.25;;;;;;;18.61;100.00;97908.06;5173891;27;20509;-66
2022/09/30 07:18:41;;;;;;;15.30;10.00;;;;;;;18.96;100.00;97927.50;5174068;27;20064;-66
2022/09/30 07:21:08;;;;;;;28.23;16.08;;;;;;;18.99;100.00;97929.38;5173827;27;20141;-66
2022/09/30 07:23:35;;;;;;;14.77;10.90;;;;;;;19.22;100.00;97942.81;5173903;27;20381;-65
2022/09/30 07:26:03;;;;;;;14.25;9.88;;;;;;;19.37;100.00;98020.13;5173633;27;20088;-67
2022/09/30 07:28:32;;;;;;;14.82;9.63;;;;;;;18.96;100.00;98088.56;5173468;27;20050;-66
2022/09/30 07:31:02;;;;;;;11.00;9.25;;;;;;;19.30;100.00;98098.94;5173390;27;20046;-66
2022/09/30 07:33:31;;;;;;;22.75;12.43;;;;;;;19.35;100.00;97989.97;5173451;27;20144;-66
2022/09/30 07:35:59;;;;;;;19.13;12.52;;;;;;;19.45;100.00;98044.41;5173831;27;20090;-65
2022/09/30 07:38:28;;;;;;;12.35;9.98;;;;;;;19.60;100.00;98030.00;5173790;27;20053;-65
2022/09/30 07:40:57;;;;;;;12.82;9.38;;;;;;;19.58;100.00;98055.47;5173966;27;20129;-66
2022/09/30 07:43:23;;;;;;;11.02;8.75;;;;;;;19.30;100.00;98050.94;5173520;27;20050;-66
2022/09/30 07:45:50;;;;;;;10.93;8.68;;;;;;;19.60;100.00;98135.66;5173538;27;20046;-66
2022/09/30 07:51:15;;;;;;;17.63;9.68;;;;;;;19.47;100.00;98086.44;5108963;28;20087;-68
2022/09/30 07:53:43;;;;;;;20.48;9.98;;;;;;;19.58;100.00;98093.59;5158651;27;20050;-66
2022/09/30 07:56:10;;;;;;;23.75;14.15;;;;;;;19.66;100.00;98126.31;5173210;27;20042;-67
2022/09/30 07:58:37;;;;;;;17.38;15.55;;;;;;;19.66;100.00;98133.84;5173286;27;20061;-66
2022/09/30 08:01:05;;;;;;;18.00;11.43;;;;;;;19.39;100.00;98167.72;5173204;27;20053;-66
2022/09/30 08:03:32;;;;;;;17.58;11.40;;;;;;;19.28;100.00;98163.28;5173339;27;20122;-67
2022/09/30 08:06:03;;;;;;;21.95;12.32;;;;;;;19.35;100.00;98103.91;5173267;27;20073;-67
2022/09/30 08:08:30;;;;;;;14.77;10.27;;;;;;;19.37;100.00;98150.72;5173194;27;20050;-67
2022/09/30 08:10:58;;;;;;;16.73;11.85;;;;;;;19.13;100.00;98090.00;5173149;27;20106;-66
2022/09/30 08:13:24;;;;;;;16.55;10.35;;;;;;;19.14;100.00;98163.78;5173226;27;20516;-67
2022/09/30 08:15:51;;;;;;;15.15;9.93;;;;;;;19.82;100.00;98210.75;5173030;27;20412;-67
2022/09/30 08:18:17;;;;;;;13.32;11.65;;;;;;;19.72;100.00;98210.69;5172846;27;20084;-66
2022/09/30 08:20:43;;;;;;;14.25;11.85;;;;;;;20.16;100.00;98168.22;5173018;27;20078;-67
2022/09/30 08:23:09;;;;;;;16.27;12.18;;;;;;;20.14;100.00;98337.63;5172840;27;20054;-67
2022/09/30 08:25:36;;;;;;;10.90;8.52;;;;;;;20.08;100.00;98345.75;5172497;27;20089;-67
2022/09/30 08:28:03;;;;;;;13.48;8.93;;;;;;;20.16;100.00;98337.97;5172749;27;20086;-67
2022/09/30 08:30:29;;;;;;;18.65;13.60;;;;;;;20.42;100.00;98300.44;5172915;27;20049;-65
2022/09/30 08:32:55;;;;;;;14.35;12.85;;;;;;;20.50;100.00;98308.56;5172506;27;20095;-66
2022/09/30 08:35:21;;;;;;;13.45;11.45;;;;;;;20.82;100.00;98315.75;5172828;27;20058;-70
2022/09/30 08:37:50;;;;;;;12.65;11.30;;;;;;;20.80;100.00;98338.50;5172779;27;20074;-72
2022/09/30 08:40:23;;;;;;;10.63;9.73;;;;;;;20.21;100.00;98307.56;5172874;27;20128;-72
2022/09/30 08:43:08;;;;;;;12.13;8.07;;;;;;;20.88;100.00;98300.00;5172068;27;20050;-74
2022/09/30 08:45:43;;;;;;;10.48;9.57;;;;;;;20.68;100.00;98409.75;5172625;27;20091;-68
2022/09/30 08:48:33;;;;;;;14.00;12.02;;;;;;;19.74;100.00;98429.94;5172534;27;20085;-71
2022/09/30 08:51:06;;;;;;;17.05;11.30;;;;;;;20.08;100.00;98359.69;5169234;27;20573;-74
2022/09/30 08:53:35;;;;;;;16.67;9.95;;;;;;;20.36;100.00;98332.91;5172270;27;20084;-71
2022/09/30 08:56:04;;;;;;;13.70;8.20;;;;;;;20.79;100.00;98359.25;5172200;27;20046;-73
2022/09/30 08:58:34;;;;;;;10.70;9.70;;;;;;;20.44;100.00;98451.13;5172633;27;20046;-72
2022/09/30 09:01:12;;;;;;;10.15;9.23;;;;;;;20.26;100.00;98455.69;5172317;27;20054;-70
2022/09/30 09:03:39;;;;;;;10.10;9.23;;;;;;;20.87;100.00;98432.97;5172436;27;20050;-71
2022/09/30 09:06:18;;;;;;;9.30;8.57;;;;;;;20.80;100.00;98469.44;5169304;27;20052;-69
2022/09/30 09:08:58;;;;;;;10.35;9.45;;;;;;;20.22;100.00;98425.19;5171831;27;20054;-73
2022/09/30 09:11:41;;;;;;;11.73;10.63;;;;;;;19.93;100.00;98380.88;5171921;27;20057;-71
2022/09/30 09:14:19;;;;;;;9.90;7.40;;;;;;;20.10;100.00;98410.09;5172630;27;20054;-71
2022/09/30 09:17:05;;;;;;;11.27;8.05;;;;;;;20.06;100.00;98445.63;5172562;27;20084;-70
2022/09/30 09:19:37;;;;;;;11.55;8.68;;;;;;;20.20;100.00;98475.75;5172046;27;20553;-71
2022/09/30 09:22:04;;;;;;;11.68;10.55;;;;;;;20.54;100.00;98456.81;5172386;27;20058;-71
2022/09/30 09:24:37;;;;;;;16.63;14.93;;;;;;;20.65;100.00;98451.63;5172206;27;20050;-69
2022/09/30 09:27:18;;;;;;;12.82;11.52;;;;;;;20.43;100.00;98454.34;5172109;27;20501;-75
2022/09/30 09:29:54;;;;;;;13.10;11.75;;;;;;;20.09;100.00;98388.28;5172358;27;20568;-75
2022/09/30 09:32:20;;;;;;;13.75;11.82;;;;;;;20.25;100.00;98387.34;5171761;27;20058;-77
2022/09/30 09:34:53;;;;;;;12.15;11.05;;;;;;;20.34;100.00;98487.66;5171918;27;20075;-71
2022/09/30 09:38:23;;;;;;;15.13;9.82;;;;;;;19.95;100.00;98459.06;5171793;27;20570;-76
2022/09/30 09:40:17;;;;;;;14.77;13.27;;;;;;;20.45;100.00;98441.53;5171751;27;20476;-75
2022/09/30 09:43:01;;;;;;;18.10;11.30;;;;;;;20.31;100.00;98494.13;5171911;27;20050;-71
2022/09/30 09:45:35;;;;;;;13.23;11.98;;;;;;;20.53;100.00;98478.31;5171760;27;20149;-72
2022/09/30 09:48:01;;;;;;;16.70;14.45;;;;;;;20.95;100.00;98444.63;5171790;27;20085;-70
2022/09/30 09:50:39;;;;;;;13.32;11.48;;;;;;;20.50;100.00;98412.34;5171603;27;20047;-71
2022/09/30 09:53:21;;;;;;;15.65;13.00;;;;;;;20.27;100.00;98362.66;5171800;27;20089;-69
2022/09/30 09:55:53;;;;;;;12.85;9.82;;;;;;;19.71;100.00;98381.53;5175510;27;20544;-71
2022/09/30 09:58:20;;;;;;;14.77;10.27;;;;;;;19.79;100.00;98439.72;5175315;27;20049;-67
2022/09/30 10:01:21;;;;;;;12.15;9.18;;;;;;;20.29;100.00;98460.38;5175468;27;20047;-77
2022/09/30 10:04:15;;;;;;;11.65;9.55;;;;;;;20.18;100.00;98469.06;5175173;27;20050;-78
2022/09/30 10:06:50;;;;;;;10.70;8.27;;;;;;;20.13;100.00;98478.78;5175180;27;20501;-75
2022/09/30 10:09:26;;;;;;;10.93;9.82;;;;;;;20.50;100.00;98515.38;5175436;27;20092;-77
2022/09/30 10:12:25;;;;;;;10.57;7.22;;;;;;;19.73;100.00;98507.03;5175258;27;20047;-72
2022/09/30 10:15:02;;;;;;;8.05;6.72;;;;;;;18.90;100.00;98440.28;5175664;27;20046;-74
2022/09/30 10:17:31;;;;;;;10.23;7.20;;;;;;;18.91;100.00;98403.75;5174944;27;20046;-74
2022/09/30 10:20:02;;;;;;;11.00;6.72;;;;;;;18.90;100.00;98423.63;5174963;27;20046;-73
2022/09/30 10:22:30;;;;;;;8.27;7.00;;;;;;;19.18;100.00;98431.16;5175094;27;20424;-74
2022/09/30 10:25:17;;;;;;;7.72;6.32;;;;;;;19.28;100.00;98429.28;5175082;27;20085;-73
2022/09/30 10:27:55;;;;;;;6.47;5.80;;;;;;;19.23;100.00;98418.72;5175102;27;20413;-74
2022/09/30 10:30:38;;;;;;;7.50;6.40;;;;;;;19.40;100.00;98409.06;5174904;27;20504;-74
2022/09/30 10:33:17;;;;;;;10.40;9.25;;;;;;;19.45;100.00;98513.38;5175400;27;20051;-74
2022/09/30 10:35:54;;;;;;;9.48;7.97;;;;;;;18.42;100.00;98516.84;5174923;27;20074;-73
2022/09/30 10:38:22;;;;;;;11.55;7.97;;;;;;;19.16;100.00;98514.19;5174883;27;20140;-73
2022/09/30 10:40:50;;;;;;;8.00;6.75;;;;;;;18.77;100.00;98529.88;5174747;27;20090;-74
2022/09/30 10:43:21;;;;;;;8.10;7.10;;;;;;;18.96;100.00;98519.88;5174554;27;20050;-74
2022/09/30 10:45:47;;;;;;;10.27;9.23;;;;;;;19.02;100.00;98509.75;5175035;27;20046;-73
2022/09/30 10:48:19;;;;;;;9.27;8.32;;;;;;;19.18;100.00;98481.16;5174567;27;20565;-74
2022/09/30 10:50:50;;;;;;;7.20;6.03;;;;;;;19.03;100.00;98480.00;5174448;27;20056;-73
2022/09/30 10:53:22;;;;;;;7.95;6.07;;;;;;;18.82;100.00;98498.00;5174465;27;20046;-73
2022/09/30 10:55:48;;;;;;;7.15;5.78;;;;;;;18.80;100.00;98517.13;5174318;27;20042;-74
2022/09/30 10:58:24;;;;;;;21.75;7.22;;;;;;;18.57;100.00;98532.72;5174292;27;20043;-73
2022/09/30 11:00:57;;;;;;;16.27;9.05;;;;;;;18.73;100.00;98454.22;5174237;27;20046;-73
2022/09/30 11:03:31;;;;;;;11.20;5.45;;;;;;;18.61;100.00;98507.63;5174256;27;20137;-72
2022/09/30 11:05:59;;;;;;;6.63;5.45;;;;;;;18.00;100.00;98436.22;5173969;27;20105;-73
2022/09/30 11:08:32;;;;;;;8.05;5.75;;;;;;;17.98;100.00;98439.41;5174480;27;20049;-73
2022/09/30 11:11:04;;;;;;;7.78;6.10;;;;;;;17.36;100.00;98416.22;5174223;27;20057;-72
2022/09/30 11:13:37;;;;;;;8.20;6.60;;;;;;;16.63;100.00;98380.09;5174536;27;20054;-73
2022/09/30 11:16:16;;;;;;;6.97;5.72;;;;;;;16.80;100.00;98374.66;5174184;27;20144;-72
2022/09/30 11:18:49;;;;;;;7.10;6.10;;;;;;;16.51;100.00;98388.22;5174253;27;20103;-71
2022/09/30 11:21:21;;;;;;;7.35;6.15;;;;;;;16.27;100.00;98335.72;5174164;27;20513;-72
2022/09/30 11:23:53;;;;;;;7.40;5.38;;;;;;;15.93;100.00;98273.13;5174010;27;20054;-72
2022/09/30 11:26:32;;;;;;;8.73;7.88;;;;;;;15.60;100.00;98247.22;5173970;27;20053;-71
2022/09/30 11:29:15;;;;;;;6.65;5.65;;;;;;;15.43;100.00;98264.88;5173757;27;20050;-71
2022/09/30 11:31:52;;;;;;;7.25;5.50;;;;;;;14.94;100.00;98232.09;5174222;27;20042;-71
2022/09/30 11:34:36;;;;;;;7.90;5.97;;;;;;;14.99;100.00;98256.44;5173816;27;20077;-72
2022/09/30 11:37:07;;;;;;;;;;;;;;;15.21;100.00;98245.88;5173990;27;20523;-71